createdAt,value
2022-09-24T00:01:24.407Z,13.21
2022-09-24T00:03:57.096Z,13.19
2022-09-24T00:06:24.436Z,13.24
2022-09-24T00:08:54.464Z,13.27
2022-09-24T00:11:22.270Z,13.82
2022-09-24T00:13:50.960Z,13.54
2022-09-24T00:16:18.806Z,13.80
2022-09-24T00:18:45.763Z,13.76
2022-09-24T00:21:19.239Z,13.71
2022-09-24T00:23:50.052Z,13.59
2022-09-24T00:26:35.550Z,14.09
2022-09-24T00:29:02.403Z,13.87
2022-09-24T00:31:29.601Z,14.07
2022-09-24T00:33:57.415Z,13.37
2022-09-24T00:36:24.565Z,14.38
2022-09-24T00:38:54.058Z,14.51
2022-09-24T00:41:23.705Z,14.86
2022-09-24T00:43:50.857Z,14.24
2022-09-24T00:46:38.762Z,14.65
2022-09-24T00:49:15.846Z,14.21
2022-09-24T00:51:46.051Z,14.70
2022-09-24T00:54:20.316Z,14.05
2022-09-24T00:56:48.888Z,14.11
2022-09-24T00:59:17.625Z,13.79
2022-09-24T01:01:47.980Z,14.10
2022-09-24T01:04:16.355Z,13.75
2022-09-24T01:06:43.579Z,13.88
2022-09-24T01:09:11.220Z,13.76
2022-09-24T01:12:01.587Z,13.49
2022-09-24T01:14:40.703Z,14.14
2022-09-24T01:17:13.658Z,14.34
2022-09-24T01:19:55.420Z,14.34
2022-09-24T01:22:43.795Z,14.40
2022-09-24T01:25:38.038Z,14.22
2022-09-24T01:28:25.326Z,13.80
2022-09-24T01:30:55.484Z,14.09
2022-09-24T01:33:23.799Z,14.50
2022-09-24T01:35:59.286Z,14.65
2022-09-24T01:38:29.801Z,14.36
2022-09-24T01:40:59.446Z,14.25
2022-09-24T01:43:28.005Z,14.52
2022-09-24T01:46:00.717Z,14.69
2022-09-24T01:48:27.906Z,14.50
2022-09-24T01:51:22.331Z,14.59
2022-09-24T01:53:54.723Z,14.22
2022-09-24T01:56:38.935Z,13.71
2022-09-24T01:59:22.601Z,14.30
2022-09-24T02:01:59.908Z,14.49
2022-09-24T02:04:26.716Z,14.40
2022-09-24T02:06:58.454Z,13.78
2022-09-24T02:09:33.526Z,13.39
2022-09-24T02:12:05.592Z,13.36
2022-09-24T02:14:33.044Z,13.62
2022-09-24T02:17:01.183Z,14.58
2022-09-24T02:19:29.968Z,13.89
2022-09-24T02:21:57.245Z,14.29
2022-09-24T02:24:34.805Z,13.89
2022-09-24T02:27:01.734Z,13.69
2022-09-24T02:29:28.690Z,13.99
2022-09-24T02:31:56.911Z,13.99
2022-09-24T02:34:51.222Z,13.55
2022-09-24T02:37:18.408Z,13.28
2022-09-24T02:39:45.282Z,13.71
2022-09-24T02:42:14.294Z,14.62
2022-09-24T02:44:41.162Z,14.12
2022-09-24T02:47:08.094Z,14.43
2022-09-24T02:49:35.013Z,14.11
2022-09-24T02:52:02.296Z,14.25
2022-09-24T02:54:29.169Z,14.89
2022-09-24T02:56:56.060Z,14.69
2022-09-24T02:59:23.158Z,14.22
2022-09-24T03:01:50.522Z,13.95
2022-09-24T03:04:17.832Z,14.25
2022-09-24T03:06:44.706Z,14.67
2022-09-24T03:09:13.135Z,14.58
2022-09-24T03:11:40.284Z,14.46
2022-09-24T03:14:07.317Z,14.09
2022-09-24T03:16:34.269Z,14.71
2022-09-24T03:19:01.163Z,15.00
2022-09-24T03:21:27.797Z,14.44
2022-09-24T03:23:54.648Z,14.36
2022-09-24T03:26:21.589Z,14.63
2022-09-24T03:28:48.474Z,14.07
2022-09-24T03:31:15.611Z,14.15
2022-09-24T03:33:45.593Z,14.85
2022-09-24T03:36:22.743Z,14.11
2022-09-24T03:38:51.676Z,14.35
2022-09-24T03:41:18.703Z,14.63
2022-09-24T03:43:45.665Z,14.45
2022-09-24T03:46:13.227Z,14.31
2022-09-24T03:48:41.382Z,14.72
2022-09-24T03:51:12.908Z,14.94
2022-09-24T03:53:40.091Z,14.80
2022-09-24T03:56:07.819Z,14.53
2022-09-24T03:58:39.302Z,14.41
2022-09-24T04:01:07.431Z,14.77
2022-09-24T04:03:34.541Z,15.26
2022-09-24T04:06:01.871Z,14.24
2022-09-24T04:08:28.875Z,14.18
2022-09-24T04:10:55.829Z,14.59
2022-09-24T04:13:22.730Z,14.31
2022-09-24T04:15:50.489Z,13.29
2022-09-24T04:18:17.999Z,14.31
2022-09-24T04:20:45.427Z,13.79
2022-09-24T04:23:12.281Z,13.96
2022-09-24T04:25:40.770Z,13.39
2022-09-24T04:28:08.761Z,13.45
2022-09-24T04:30:35.744Z,13.50
2022-09-24T04:33:03.228Z,14.21
2022-09-24T04:35:32.284Z,13.80
2022-09-24T04:38:02.381Z,13.84
2022-09-24T04:40:30.213Z,14.30
2022-09-24T04:42:57.645Z,14.58
2022-09-24T04:45:25.186Z,14.99
2022-09-24T04:47:56.268Z,15.70
2022-09-24T04:50:24.328Z,15.47
2022-09-24T04:52:51.307Z,15.39
2022-09-24T04:55:20.885Z,14.98
2022-09-24T04:57:48.079Z,13.93
2022-09-24T05:00:17.761Z,13.98
2022-09-24T05:02:45.542Z,14.28
2022-09-24T05:05:13.426Z,14.90
2022-09-24T05:07:41.276Z,14.82
2022-09-24T05:10:08.567Z,14.23
2022-09-24T05:12:36.660Z,14.28
2022-09-24T05:15:04.545Z,14.51
2022-09-24T05:17:31.628Z,14.71
2022-09-24T05:19:59.722Z,16.00
2022-09-24T05:22:28.111Z,17.04
2022-09-24T05:24:54.988Z,16.76
2022-09-24T05:27:23.341Z,17.73
2022-09-24T05:29:50.626Z,19.08
2022-09-24T05:32:19.648Z,19.65
2022-09-24T05:34:47.720Z,19.76
2022-09-24T05:37:15.140Z,20.42
2022-09-24T05:39:42.427Z,21.09
2022-09-24T05:42:16.395Z,21.99
2022-09-24T05:44:46.389Z,22.52
2022-09-24T05:47:16.541Z,22.13
2022-09-24T05:49:43.355Z,20.98
2022-09-24T05:52:10.220Z,21.95
2022-09-24T05:54:38.077Z,22.10
2022-09-24T05:57:05.391Z,23.35
2022-09-24T05:59:32.452Z,24.17
2022-09-24T06:01:59.358Z,23.93
2022-09-24T06:04:32.154Z,23.78
2022-09-24T06:06:58.995Z,23.65
2022-09-24T06:09:25.847Z,22.61
2022-09-24T06:11:54.832Z,22.49
2022-09-24T06:14:21.753Z,22.56
2022-09-24T06:16:48.585Z,23.00
2022-09-24T06:19:15.430Z,22.96
2022-09-24T06:21:42.255Z,22.92
2022-09-24T06:24:16.880Z,23.22
2022-09-24T06:26:43.772Z,23.34
2022-09-24T06:29:10.688Z,22.82
2022-09-24T06:31:37.637Z,23.08
2022-09-24T06:34:05.608Z,22.44
2022-09-24T06:36:32.477Z,23.74
2022-09-24T06:38:59.427Z,24.64
2022-09-24T06:41:26.281Z,22.05
2022-09-24T06:43:56.449Z,24.10
2022-09-24T06:46:23.431Z,24.38
2022-09-24T06:48:50.304Z,23.41
2022-09-24T06:51:17.157Z,23.51
2022-09-24T06:53:44.003Z,22.95
2022-09-24T06:56:10.830Z,23.41
2022-09-24T06:58:37.794Z,23.28
2022-09-24T07:01:04.881Z,23.05
2022-09-24T07:03:33.867Z,22.55
2022-09-24T07:06:05.698Z,22.53
2022-09-24T07:08:33.216Z,23.26
2022-09-24T07:11:00.909Z,22.92
2022-09-24T07:13:27.849Z,23.39
2022-09-24T07:15:54.795Z,23.63
2022-09-24T07:18:21.758Z,22.39
2022-09-24T07:20:55.336Z,22.66
2022-09-24T07:23:22.922Z,22.07
2022-09-24T07:25:51.330Z,21.40
2022-09-24T07:28:19.704Z,20.50
2022-09-24T07:30:46.541Z,20.04
2022-09-24T07:33:13.487Z,19.52
2022-09-24T07:35:40.739Z,19.88
2022-09-24T07:38:12.494Z,19.50
2022-09-24T07:40:39.816Z,18.79
2022-09-24T07:43:12.496Z,18.90
2022-09-24T07:45:40.686Z,19.16
2022-09-24T07:48:08.303Z,19.31
2022-09-24T07:50:39.427Z,19.91
2022-09-24T07:53:06.674Z,19.96
2022-09-24T07:55:39.597Z,19.55
2022-09-24T07:58:09.070Z,19.32
2022-09-24T08:00:35.982Z,19.04
2022-09-24T08:03:03.794Z,19.13
2022-09-24T08:05:45.707Z,18.50
2022-09-24T08:08:13.255Z,18.49
2022-09-24T08:10:40.260Z,18.33
2022-09-24T08:13:07.207Z,18.52
2022-09-24T08:15:36.134Z,19.05
2022-09-24T08:18:03.946Z,18.35
2022-09-24T08:20:32.761Z,19.17
2022-09-24T08:23:07.033Z,19.43
2022-09-24T08:25:34.030Z,19.78
2022-09-24T08:28:05.350Z,19.58
2022-09-24T08:30:33.542Z,19.60
2022-09-24T08:33:00.572Z,19.68
2022-09-24T08:35:28.400Z,18.97
2022-09-24T08:37:55.289Z,19.25
2022-09-24T08:40:31.429Z,19.19
2022-09-24T08:43:07.511Z,19.21
2022-09-24T08:46:02.036Z,19.02
2022-09-24T08:48:32.330Z,19.29
2022-09-24T08:51:03.125Z,19.43
2022-09-24T08:53:41.632Z,20.53
2022-09-24T08:56:08.907Z,20.95
2022-09-24T08:58:44.102Z,20.63
2022-09-24T09:01:11.456Z,19.89
2022-09-24T09:03:56.126Z,19.85
2022-09-24T09:06:49.230Z,19.88
2022-09-24T09:09:24.697Z,20.51
2022-09-24T09:11:57.856Z,20.24
2022-09-24T09:15:16.002Z,21.17
2022-09-24T09:17:48.902Z,21.39
2022-09-24T09:20:28.325Z,20.54
2022-09-24T09:22:55.394Z,20.93
2022-09-24T09:25:28.516Z,20.93
2022-09-24T09:28:03.216Z,20.85
2022-09-24T09:31:07.084Z,20.80
2022-09-24T09:33:37.557Z,20.76
2022-09-24T09:36:45.381Z,20.94
2022-09-24T09:39:28.613Z,20.81
2022-09-24T09:42:09.586Z,20.36
2022-09-24T09:44:44.863Z,20.91
2022-09-24T09:48:06.308Z,20.81
2022-09-24T09:50:45.811Z,21.18
2022-09-24T09:53:24.461Z,21.35
2022-09-24T09:56:03.204Z,20.94
2022-09-24T09:58:34.773Z,21.20
2022-09-24T10:01:10.587Z,20.77
2022-09-24T10:03:47.767Z,21.44
2022-09-24T10:06:15.562Z,21.73
2022-09-24T10:08:42.220Z,21.15
2022-09-24T10:11:15.693Z,21.39
2022-09-24T10:13:42.726Z,21.52
2022-09-24T10:16:10.713Z,22.19
2022-09-24T10:18:38.113Z,22.60
2022-09-24T10:21:09.304Z,22.44
2022-09-24T10:23:40.282Z,22.14
2022-09-24T10:26:07.783Z,21.48
2022-09-24T10:28:54.457Z,21.48
2022-09-24T10:31:23.186Z,22.34
2022-09-24T10:33:53.034Z,22.77
2022-09-24T10:36:25.439Z,22.27
2022-09-24T10:39:24.878Z,22.05
2022-09-24T10:41:53.400Z,21.75
2022-09-24T10:44:22.351Z,21.54
2022-09-24T10:47:11.061Z,22.04
2022-09-24T10:50:01.265Z,21.47
2022-09-24T10:52:52.990Z,21.45
2022-09-24T10:55:29.517Z,21.88
2022-09-24T10:58:03.579Z,21.77
2022-09-24T11:00:36.572Z,22.03
2022-09-24T11:03:23.089Z,21.34
2022-09-24T11:06:01.711Z,21.63
2022-09-24T11:08:43.598Z,21.58
2022-09-24T11:11:40.209Z,21.77
2022-09-24T11:14:31.605Z,20.84
2022-09-24T11:17:26.635Z,21.33
2022-09-24T11:20:01.557Z,21.65
2022-09-24T11:22:49.857Z,21.94
2022-09-24T11:25:36.738Z,21.32
2022-09-24T11:28:10.690Z,21.70
2022-09-24T11:30:55.861Z,21.99
2022-09-24T11:33:32.128Z,21.27
2022-09-24T11:36:21.096Z,21.34
2022-09-24T11:39:18.215Z,21.49
2022-09-24T11:42:16.833Z,21.48
2022-09-24T11:44:57.020Z,20.72
2022-09-24T11:47:54.521Z,20.91
2022-09-24T11:50:47.883Z,20.67
2022-09-24T11:53:16.612Z,20.15
2022-09-24T11:55:53.485Z,20.05
2022-09-24T11:58:34.104Z,19.88
2022-09-24T12:01:04.110Z,19.73
2022-09-24T12:03:45.279Z,20.15
2022-09-24T12:06:13.934Z,20.28
2022-09-24T12:09:19.586Z,20.72
2022-09-24T12:11:52.816Z,21.15
2022-09-24T12:14:32.017Z,20.77
2022-09-24T12:17:07.103Z,20.57
2022-09-24T12:19:39.695Z,21.04
2022-09-24T12:22:06.614Z,21.46
2022-09-24T12:24:46.347Z,21.36
2022-09-24T12:27:21.499Z,22.27
2022-09-24T12:30:34.955Z,22.36
2022-09-24T12:33:11.495Z,21.54
2022-09-24T12:36:06.771Z,21.52
2022-09-24T12:38:43.032Z,21.30
2022-09-24T12:41:32.118Z,21.54
2022-09-24T12:44:05.207Z,21.48
2022-09-24T12:46:38.596Z,20.35
2022-09-24T12:49:18.876Z,20.67
2022-09-24T12:51:45.900Z,21.11
2022-09-24T12:54:24.597Z,21.21
2022-09-24T12:56:51.738Z,21.30
2022-09-24T12:59:27.021Z,21.57
2022-09-24T13:01:54.493Z,21.84
2022-09-24T13:04:21.694Z,21.54
2022-09-24T13:06:50.089Z,20.99
2022-09-24T13:09:37.085Z,20.92
2022-09-24T13:12:19.077Z,20.49
2022-09-24T13:15:04.594Z,20.53
2022-09-24T13:17:33.333Z,20.93
2022-09-24T13:20:08.654Z,21.31
2022-09-24T13:22:36.938Z,21.58
2022-09-24T13:25:12.097Z,21.94
2022-09-24T13:27:43.281Z,22.16
2022-09-24T13:30:19.210Z,22.45
2022-09-24T13:33:00.396Z,21.40
2022-09-24T13:35:54.521Z,22.13
2022-09-24T13:38:24.845Z,21.63
2022-09-24T13:41:14.733Z,21.88
2022-09-24T13:43:47.622Z,21.45
2022-09-24T13:46:17.610Z,21.29
2022-09-24T13:48:50.499Z,21.79
2022-09-24T13:51:18.528Z,21.67
2022-09-24T13:53:53.599Z,21.66
2022-09-24T13:56:21.420Z,20.85
2022-09-24T13:58:51.446Z,21.53
2022-09-24T14:01:27.789Z,21.76
2022-09-24T14:04:00.525Z,21.09
2022-09-24T14:06:36.406Z,21.13
2022-09-24T14:09:03.695Z,21.79
2022-09-24T14:11:30.692Z,21.78
2022-09-24T14:14:13.079Z,21.79
2022-09-24T14:16:39.951Z,22.28
2022-09-24T14:19:06.816Z,21.88
2022-09-24T14:21:55.248Z,22.15
2022-09-24T14:24:29.352Z,22.17
2022-09-24T14:26:59.926Z,22.05
2022-09-24T14:29:48.870Z,21.99
2022-09-24T14:32:28.894Z,21.89
2022-09-24T14:34:58.434Z,21.44
2022-09-24T14:37:28.258Z,21.63
2022-09-24T14:40:19.075Z,21.28
2022-09-24T14:42:54.113Z,21.19
2022-09-24T14:45:34.510Z,21.23
2022-09-24T14:48:03.048Z,21.70
2022-09-24T14:50:41.221Z,22.05
2022-09-24T14:53:22.392Z,21.97
2022-09-24T14:55:50.055Z,22.32
2022-09-24T14:58:27.055Z,22.07
2022-09-24T15:00:58.666Z,22.01
2022-09-24T15:03:40.133Z,22.21
2022-09-24T15:06:17.709Z,22.66
2022-09-24T15:08:45.157Z,22.42
2022-09-24T15:11:18.174Z,22.58
2022-09-24T15:13:45.262Z,23.00
2022-09-24T15:16:29.389Z,22.55
2022-09-24T15:19:08.453Z,22.59
2022-09-24T15:21:35.343Z,22.33
2022-09-24T15:24:06.385Z,22.43
2022-09-24T15:26:35.735Z,23.16
2022-09-24T15:29:02.980Z,23.01
2022-09-24T15:31:30.252Z,22.93
2022-09-24T15:33:57.231Z,22.20
2022-09-24T15:36:24.222Z,23.23
2022-09-24T15:38:52.484Z,22.96
2022-09-24T15:41:19.922Z,22.66
2022-09-24T15:43:47.770Z,22.26
2022-09-24T15:46:14.657Z,22.68
2022-09-24T15:48:41.603Z,22.87
2022-09-24T15:51:15.062Z,23.41
2022-09-24T15:53:42.514Z,23.56
2022-09-24T15:56:09.430Z,23.09
2022-09-24T15:58:36.375Z,22.69
2022-09-24T16:01:03.762Z,22.83
2022-09-24T16:03:32.009Z,23.20
2022-09-24T16:05:59.956Z,23.73
2022-09-24T16:08:26.960Z,22.83
2022-09-24T16:10:53.856Z,23.35
2022-09-24T16:13:23.410Z,23.08
2022-09-24T16:15:50.387Z,23.26
2022-09-24T16:18:22.356Z,23.64
2022-09-24T16:20:50.055Z,23.37
2022-09-24T16:23:17.577Z,23.12
2022-09-24T16:25:55.852Z,22.88
2022-09-24T16:28:23.020Z,23.11
2022-09-24T16:30:50.086Z,23.25
2022-09-24T16:33:16.986Z,22.89
2022-09-24T16:35:43.852Z,22.68
2022-09-24T16:38:10.765Z,22.36
2022-09-24T16:40:37.931Z,22.97
2022-09-24T16:43:04.882Z,22.76
2022-09-24T16:45:33.032Z,22.59
2022-09-24T16:48:00.292Z,22.30
2022-09-24T16:50:27.607Z,22.10
2022-09-24T16:52:55.562Z,21.71
2022-09-24T16:55:26.488Z,22.31
2022-09-24T16:57:53.725Z,22.22
2022-09-24T17:00:20.736Z,22.35
2022-09-24T17:02:47.673Z,21.72
2022-09-24T17:05:14.625Z,21.76
2022-09-24T17:07:41.494Z,21.31
2022-09-24T17:10:13.760Z,21.04
2022-09-24T17:12:42.638Z,21.20
2022-09-24T17:15:09.888Z,20.75
2022-09-24T17:17:43.175Z,20.94
2022-09-24T17:20:15.870Z,21.07
2022-09-24T17:22:42.813Z,20.33
2022-09-24T17:25:10.129Z,20.55
2022-09-24T17:27:37.070Z,20.62
2022-09-24T17:30:06.240Z,20.63
2022-09-24T17:32:33.312Z,21.14
2022-09-24T17:35:02.194Z,21.07
2022-09-24T17:37:29.331Z,20.90
2022-09-24T17:39:56.291Z,20.60
2022-09-24T17:42:23.205Z,20.84
2022-09-24T17:44:50.108Z,20.35
2022-09-24T17:47:17.026Z,20.77
2022-09-24T17:49:44.080Z,21.03
2022-09-24T17:52:11.351Z,19.86
2022-09-24T17:54:38.290Z,19.85
2022-09-24T17:57:05.133Z,19.99
2022-09-24T17:59:32.092Z,19.43
2022-09-24T18:01:59.045Z,19.85
2022-09-24T18:04:28.366Z,19.73
2022-09-24T18:06:55.267Z,19.39
2022-09-24T18:09:22.157Z,19.56
2022-09-24T18:11:51.535Z,19.26
2022-09-24T18:14:23.131Z,19.23
2022-09-24T18:16:50.767Z,19.72
2022-09-24T18:19:18.081Z,20.16
2022-09-24T18:21:46.069Z,20.64
2022-09-24T18:24:13.307Z,21.32
2022-09-24T18:26:40.896Z,21.59
2022-09-24T18:29:17.785Z,21.55
2022-09-24T18:31:44.999Z,22.16
2022-09-24T18:34:14.952Z,22.52
2022-09-24T18:36:43.429Z,22.51
2022-09-24T18:39:13.511Z,22.50
2022-09-24T18:41:41.845Z,22.23
2022-09-24T18:44:10.576Z,22.95
2022-09-24T18:46:37.647Z,23.01
2022-09-24T18:49:06.528Z,22.68
2022-09-24T18:51:35.088Z,23.16
2022-09-24T18:54:04.917Z,22.76
2022-09-24T18:56:32.325Z,22.84
2022-09-24T18:59:09.961Z,23.20
2022-09-24T19:01:38.320Z,23.07
2022-09-24T19:04:06.252Z,23.03
2022-09-24T19:06:35.355Z,22.99
2022-09-24T19:09:02.277Z,23.26
2022-09-24T19:11:31.654Z,23.13
2022-09-24T19:13:59.536Z,23.34
2022-09-24T19:16:26.627Z,23.17
2022-09-24T19:18:54.193Z,23.72
2022-09-24T19:21:24.448Z,23.11
2022-09-24T19:23:53.592Z,23.76
2022-09-24T19:26:25.868Z,23.58
2022-09-24T19:28:53.522Z,23.53
2022-09-24T19:31:30.247Z,23.13
2022-09-24T19:33:58.180Z,23.13
2022-09-24T19:36:25.110Z,22.79
2022-09-24T19:38:52.157Z,22.65
2022-09-24T19:41:24.609Z,22.60
2022-09-24T19:43:55.298Z,22.36
2022-09-24T19:46:24.476Z,22.09
2022-09-24T19:48:52.158Z,20.90
2022-09-24T19:51:24.919Z,20.02
2022-09-24T19:54:00.360Z,21.03
2022-09-24T19:56:27.508Z,21.36
2022-09-24T19:58:56.239Z,21.15
2022-09-24T20:01:31.717Z,20.10
2022-09-24T20:04:00.527Z,17.94
2022-09-24T20:06:31.436Z,18.81
2022-09-24T20:08:59.507Z,19.76
2022-09-24T20:11:27.138Z,20.37
2022-09-24T20:13:55.995Z,20.88
2022-09-24T20:16:26.418Z,20.23
2022-09-24T20:18:58.230Z,19.46
2022-09-24T20:21:27.855Z,18.18
2022-09-24T20:23:57.009Z,16.97
2022-09-24T20:26:42.695Z,17.20
2022-09-24T20:29:10.329Z,16.96
2022-09-24T20:31:37.575Z,16.87
2022-09-24T20:34:04.415Z,17.54
2022-09-24T20:36:31.698Z,18.11
2022-09-24T20:38:59.771Z,19.39
2022-09-24T20:41:26.973Z,19.77
2022-09-24T20:43:56.914Z,19.29
2022-09-24T20:46:26.544Z,19.83
2022-09-24T20:48:58.280Z,19.91
2022-09-24T20:51:27.389Z,20.00
2022-09-24T20:53:54.789Z,20.37
2022-09-24T20:56:22.061Z,20.13
2022-09-24T20:58:51.333Z,20.38
2022-09-24T21:01:24.438Z,20.32
2022-09-24T21:03:51.454Z,19.83
2022-09-24T21:06:23.040Z,20.77
2022-09-24T21:08:50.156Z,20.36
2022-09-24T21:11:19.355Z,20.40
2022-09-24T21:13:50.247Z,20.03
2022-09-24T21:16:19.980Z,20.16
2022-09-24T21:18:48.244Z,19.92
2022-09-24T21:21:19.634Z,20.02
2022-09-24T21:23:48.516Z,20.08
2022-09-24T21:26:20.843Z,19.93
2022-09-24T21:28:49.654Z,20.71
2022-09-24T21:31:19.286Z,20.66
2022-09-24T21:33:47.758Z,20.67
2022-09-24T21:36:18.747Z,20.55
2022-09-24T21:39:07.322Z,20.20
2022-09-24T21:41:37.952Z,19.62
2022-09-24T21:44:10.411Z,19.86
2022-09-24T21:46:37.444Z,19.93
2022-09-24T21:49:04.425Z,20.54
2022-09-24T21:51:31.565Z,20.62
2022-09-24T21:54:01.966Z,20.17
2022-09-24T21:56:29.923Z,20.82
2022-09-24T21:58:56.932Z,20.48
2022-09-24T22:01:27.175Z,20.66
2022-09-24T22:03:55.778Z,20.38
2022-09-24T22:06:29.055Z,20.69
2022-09-24T22:09:14.651Z,20.86
2022-09-24T22:11:41.583Z,20.50
2022-09-24T22:14:08.471Z,20.07
2022-09-24T22:16:36.349Z,20.23
2022-09-24T22:19:05.102Z,19.27
2022-09-24T22:21:32.256Z,19.32
2022-09-24T22:23:59.588Z,18.83
2022-09-24T22:26:26.605Z,18.26
2022-09-24T22:28:54.323Z,19.27
2022-09-24T22:31:21.264Z,19.62
2022-09-24T22:34:08.166Z,18.59
2022-09-24T22:36:35.840Z,19.23
2022-09-24T22:39:03.954Z,19.16
2022-09-24T22:41:31.597Z,19.85
2022-09-24T22:43:59.511Z,19.79
2022-09-24T22:46:27.436Z,20.04
2022-09-24T22:48:55.895Z,19.00
2022-09-24T22:51:24.478Z,19.60
2022-09-24T22:53:52.619Z,20.01
2022-09-24T22:56:22.038Z,20.02
2022-09-24T22:58:56.711Z,18.97
2022-09-24T23:01:26.876Z,19.40
2022-09-24T23:03:55.357Z,20.21
2022-09-24T23:06:23.332Z,19.90
2022-09-24T23:08:51.689Z,20.73
2022-09-24T23:11:20.856Z,20.82
2022-09-24T23:13:52.749Z,20.30
2022-09-24T23:16:22.517Z,20.25
2022-09-24T23:18:52.872Z,20.23
2022-09-24T23:21:20.994Z,20.90
2022-09-24T23:23:47.973Z,20.63
2022-09-24T23:26:17.698Z,20.56
2022-09-24T23:28:45.928Z,20.69
2022-09-24T23:31:14.456Z,20.58
2022-09-24T23:33:42.532Z,20.38
2022-09-24T23:36:11.389Z,21.23
2022-09-24T23:38:38.888Z,20.69
2022-09-24T23:41:06.674Z,20.68
2022-09-24T23:43:33.816Z,21.21
2022-09-24T23:46:01.399Z,21.56
2022-09-24T23:48:28.565Z,21.21
2022-09-24T23:50:55.754Z,20.85
2022-09-24T23:53:22.640Z,21.11
2022-09-24T23:55:50.034Z,20.63
2022-09-24T23:58:20.220Z,20.74
